sensor_id;sensor_type;location;lat;lon;timestamp;P1;durP1;ratioP1;P2;durP2;ratioP2
76202;SDS011;64985;46.364;17.008;2023-02-01T00:00:11;42.42;;;20.88;;
76202;SDS011;64985;46.364;17.008;2023-02-01T00:03:14;37.28;;;20.25;;
76202;SDS011;64985;46.364;17.008;2023-02-01T00:06:16;29.92;;;15.27;;
76202;SDS011;64985;46.364;17.008;2023-02-01T00:09:18;37.95;;;18.73;;
76202;SDS011;64985;46.364;17.008;2023-02-01T00:12:20;38.67;;;18.73;;
76202;SDS011;64985;46.364;17.008;2023-02-01T00:15:22;38.70;;;18.45;;
76202;SDS011;64985;46.364;17.008;2023-02-01T00:18:25;58.88;;;26.73;;
76202;SDS011;64985;46.364;17.008;2023-02-01T00:21:27;42.38;;;19.90;;
76202;SDS011;64985;46.364;17.008;2023-02-01T00:24:30;31.05;;;14.15;;
76202;SDS011;64985;46.364;17.008;2023-02-01T00:27:32;29.88;;;14.32;;
76202;SDS011;64985;46.364;17.008;2023-02-01T00:30:34;31.75;;;14.18;;
76202;SDS011;64985;46.364;17.008;2023-02-01T00:33:37;40.10;;;17.77;;
76202;SDS011;64985;46.364;17.008;2023-02-01T00:36:39;33.13;;;15.88;;
76202;SDS011;64985;46.364;17.008;2023-02-01T00:39:41;32.92;;;14.52;;
76202;SDS011;64985;46.364;17.008;2023-02-01T00:42:43;32.72;;;14.85;;
76202;SDS011;64985;46.364;17.008;2023-02-01T00:45:46;32.63;;;14.50;;
76202;SDS011;64985;46.364;17.008;2023-02-01T00:48:49;31.92;;;14.82;;
76202;SDS011;64985;46.364;17.008;2023-02-01T00:51:51;34.80;;;15.48;;
76202;SDS011;64985;46.364;17.008;2023-02-01T00:54:54;38.60;;;18.13;;
76202;SDS011;64985;46.364;17.008;2023-02-01T00:57:56;31.70;;;14.75;;
76202;SDS011;64985;46.364;17.008;2023-02-01T01:01:02;34.47;;;15.52;;
76202;SDS011;64985;46.364;17.008;2023-02-01T01:04:09;34.00;;;14.70;;
76202;SDS011;64985;46.364;17.008;2023-02-01T01:07:11;34.30;;;15.23;;
76202;SDS011;64985;46.364;17.008;2023-02-01T01:10:13;36.45;;;16.63;;
76202;SDS011;64985;46.364;17.008;2023-02-01T01:13:16;38.15;;;16.25;;
76202;SDS011;64985;46.364;17.008;2023-02-01T01:16:18;55.80;;;22.77;;
76202;SDS011;64985;46.364;17.008;2023-02-01T01:19:21;46.50;;;20.13;;
76202;SDS011;64985;46.364;17.008;2023-02-01T01:22:24;51.08;;;21.30;;
76202;SDS011;64985;46.364;17.008;2023-02-01T01:25:26;37.08;;;17.52;;
76202;SDS011;64985;46.364;17.008;2023-02-01T01:28:28;48.17;;;19.45;;
76202;SDS011;64985;46.364;17.008;2023-02-01T01:31:30;36.95;;;17.48;;
76202;SDS011;64985;46.364;17.008;2023-02-01T01:34:33;41.10;;;17.38;;
76202;SDS011;64985;46.364;17.008;2023-02-01T01:37:36;39.03;;;17.65;;
76202;SDS011;64985;46.364;17.008;2023-02-01T01:40:38;41.78;;;16.88;;
76202;SDS011;64985;46.364;17.008;2023-02-01T01:43:48;39.05;;;16.42;;
76202;SDS011;64985;46.364;17.008;2023-02-01T01:46:50;34.30;;;15.73;;
76202;SDS011;64985;46.364;17.008;2023-02-01T01:49:52;88.22;;;38.95;;
76202;SDS011;64985;46.364;17.008;2023-02-01T01:52:55;73.35;;;33.35;;
76202;SDS011;64985;46.364;17.008;2023-02-01T01:56:00;53.13;;;23.70;;
76202;SDS011;64985;46.364;17.008;2023-02-01T01:59:02;49.78;;;22.27;;
76202;SDS011;64985;46.364;17.008;2023-02-01T02:02:07;62.38;;;29.33;;
76202;SDS011;64985;46.364;17.008;2023-02-01T02:05:09;48.10;;;23.20;;
76202;SDS011;64985;46.364;17.008;2023-02-01T02:08:12;41.08;;;18.77;;
76202;SDS011;64985;46.364;17.008;2023-02-01T02:11:16;47.22;;;21.00;;
76202;SDS011;64985;46.364;17.008;2023-02-01T02:14:19;47.88;;;21.08;;
76202;SDS011;64985;46.364;17.008;2023-02-01T02:24:14;46.80;;;19.63;;
76202;SDS011;64985;46.364;17.008;2023-02-01T02:37:56;42.58;;;18.20;;
76202;SDS011;64985;46.364;17.008;2023-02-01T02:41:28;41.13;;;19.13;;
76202;SDS011;64985;46.364;17.008;2023-02-01T02:45:14;29.83;;;14.07;;
76202;SDS011;64985;46.364;17.008;2023-02-01T02:48:47;31.10;;;14.20;;
76202;SDS011;64985;46.364;17.008;2023-02-01T02:52:22;30.92;;;13.88;;
76202;SDS011;64985;46.364;17.008;2023-02-01T02:55:42;32.42;;;15.98;;
76202;SDS011;64985;46.364;17.008;2023-02-01T02:58:45;29.75;;;14.35;;
76202;SDS011;64985;46.364;17.008;2023-02-01T03:02:06;33.65;;;14.27;;
76202;SDS011;64985;46.364;17.008;2023-02-01T03:05:35;31.27;;;14.02;;
76202;SDS011;64985;46.364;17.008;2023-02-01T03:08:38;29.33;;;13.98;;
76202;SDS011;64985;46.364;17.008;2023-02-01T03:11:47;31.15;;;14.18;;
76202;SDS011;64985;46.364;17.008;2023-02-01T03:15:11;34.50;;;13.98;;
76202;SDS011;64985;46.364;17.008;2023-02-01T03:21:48;31.05;;;14.77;;
76202;SDS011;64985;46.364;17.008;2023-02-01T03:24:54;31.92;;;14.52;;
76202;SDS011;64985;46.364;17.008;2023-02-01T03:28:00;30.15;;;13.75;;
76202;SDS011;64985;46.364;17.008;2023-02-01T03:31:10;30.45;;;15.30;;
76202;SDS011;64985;46.364;17.008;2023-02-01T03:34:12;34.53;;;15.82;;
76202;SDS011;64985;46.364;17.008;2023-02-01T03:37:16;35.28;;;17.23;;
76202;SDS011;64985;46.364;17.008;2023-02-01T03:40:28;29.95;;;14.13;;
76202;SDS011;64985;46.364;17.008;2023-02-01T03:43:39;27.02;;;13.23;;
76202;SDS011;64985;46.364;17.008;2023-02-01T03:46:51;28.25;;;13.98;;
76202;SDS011;64985;46.364;17.008;2023-02-01T03:50:04;37.13;;;16.95;;
76202;SDS011;64985;46.364;17.008;2023-02-01T03:53:11;28.35;;;13.20;;
76202;SDS011;64985;46.364;17.008;2023-02-01T03:56:19;34.78;;;13.48;;
76202;SDS011;64985;46.364;17.008;2023-02-01T03:59:24;27.00;;;12.52;;
76202;SDS011;64985;46.364;17.008;2023-02-01T04:02:26;32.03;;;13.27;;
76202;SDS011;64985;46.364;17.008;2023-02-01T04:05:29;26.83;;;13.68;;
76202;SDS011;64985;46.364;17.008;2023-02-01T04:08:31;28.90;;;12.98;;
76202;SDS011;64985;46.364;17.008;2023-02-01T04:11:34;25.67;;;12.70;;
76202;SDS011;64985;46.364;17.008;2023-02-01T04:14:36;27.92;;;12.35;;
76202;SDS011;64985;46.364;17.008;2023-02-01T04:17:38;29.70;;;13.50;;
76202;SDS011;64985;46.364;17.008;2023-02-01T04:20:40;27.02;;;12.93;;
76202;SDS011;64985;46.364;17.008;2023-02-01T04:23:44;27.20;;;12.68;;
76202;SDS011;64985;46.364;17.008;2023-02-01T04:26:46;26.17;;;12.18;;
76202;SDS011;64985;46.364;17.008;2023-02-01T04:29:48;26.33;;;11.65;;
76202;SDS011;64985;46.364;17.008;2023-02-01T04:32:51;25.08;;;12.25;;
76202;SDS011;64985;46.364;17.008;2023-02-01T04:35:53;28.13;;;11.82;;
76202;SDS011;64985;46.364;17.008;2023-02-01T04:38:55;29.55;;;12.77;;
76202;SDS011;64985;46.364;17.008;2023-02-01T04:41:57;27.77;;;12.57;;
76202;SDS011;64985;46.364;17.008;2023-02-01T04:44:59;28.55;;;12.65;;
76202;SDS011;64985;46.364;17.008;2023-02-01T04:48:01;29.23;;;12.45;;
76202;SDS011;64985;46.364;17.008;2023-02-01T04:51:04;26.20;;;12.50;;
76202;SDS011;64985;46.364;17.008;2023-02-01T04:54:06;26.05;;;12.10;;
76202;SDS011;64985;46.364;17.008;2023-02-01T04:57:09;25.65;;;12.25;;
76202;SDS011;64985;46.364;17.008;2023-02-01T05:00:11;26.17;;;12.60;;
76202;SDS011;64985;46.364;17.008;2023-02-01T05:03:14;25.40;;;11.65;;
76202;SDS011;64985;46.364;17.008;2023-02-01T05:06:17;26.75;;;12.95;;
76202;SDS011;64985;46.364;17.008;2023-02-01T05:09:19;27.40;;;12.57;;
76202;SDS011;64985;46.364;17.008;2023-02-01T05:12:23;25.98;;;11.90;;
76202;SDS011;64985;46.364;17.008;2023-02-01T05:15:44;25.38;;;11.27;;
76202;SDS011;64985;46.364;17.008;2023-02-01T05:18:47;24.10;;;12.02;;
76202;SDS011;64985;46.364;17.008;2023-02-01T05:21:49;26.02;;;11.95;;
76202;SDS011;64985;46.364;17.008;2023-02-01T05:24:51;24.83;;;11.25;;
76202;SDS011;64985;46.364;17.008;2023-02-01T05:27:54;27.15;;;12.93;;
76202;SDS011;64985;46.364;17.008;2023-02-01T05:30:56;56.97;;;23.70;;
76202;SDS011;64985;46.364;17.008;2023-02-01T05:33:58;56.63;;;22.98;;
76202;SDS011;64985;46.364;17.008;2023-02-01T05:37:01;36.30;;;15.93;;
76202;SDS011;64985;46.364;17.008;2023-02-01T05:40:03;34.72;;;15.80;;
76202;SDS011;64985;46.364;17.008;2023-02-01T05:43:05;27.42;;;12.88;;
76202;SDS011;64985;46.364;17.008;2023-02-01T05:46:07;28.30;;;12.27;;
76202;SDS011;64985;46.364;17.008;2023-02-01T05:49:12;31.83;;;14.43;;
76202;SDS011;64985;46.364;17.008;2023-02-01T05:52:14;26.00;;;13.18;;
76202;SDS011;64985;46.364;17.008;2023-02-01T05:55:20;24.85;;;12.23;;
76202;SDS011;64985;46.364;17.008;2023-02-01T05:58:22;28.20;;;13.77;;
76202;SDS011;64985;46.364;17.008;2023-02-01T06:01:25;30.48;;;13.48;;
76202;SDS011;64985;46.364;17.008;2023-02-01T06:04:27;34.45;;;14.63;;
76202;SDS011;64985;46.364;17.008;2023-02-01T06:07:29;30.13;;;13.00;;
76202;SDS011;64985;46.364;17.008;2023-02-01T06:10:34;27.70;;;13.63;;
76202;SDS011;64985;46.364;17.008;2023-02-01T06:13:36;28.65;;;12.90;;
76202;SDS011;64985;46.364;17.008;2023-02-01T06:16:40;25.35;;;11.77;;
76202;SDS011;64985;46.364;17.008;2023-02-01T06:19:42;25.90;;;12.80;;
76202;SDS011;64985;46.364;17.008;2023-02-01T06:22:45;39.63;;;15.57;;
76202;SDS011;64985;46.364;17.008;2023-02-01T06:25:48;36.65;;;14.52;;
76202;SDS011;64985;46.364;17.008;2023-02-01T06:28:50;32.90;;;14.00;;
76202;SDS011;64985;46.364;17.008;2023-02-01T06:31:52;63.13;;;22.95;;
76202;SDS011;64985;46.364;17.008;2023-02-01T06:34:54;48.90;;;19.17;;
76202;SDS011;64985;46.364;17.008;2023-02-01T06:37:57;33.70;;;14.43;;
76202;SDS011;64985;46.364;17.008;2023-02-01T06:40:59;33.22;;;14.25;;
76202;SDS011;64985;46.364;17.008;2023-02-01T06:44:02;39.53;;;17.42;;
76202;SDS011;64985;46.364;17.008;2023-02-01T06:47:04;48.92;;;22.20;;
76202;SDS011;64985;46.364;17.008;2023-02-01T06:50:09;42.33;;;18.63;;
76202;SDS011;64985;46.364;17.008;2023-02-01T06:53:12;38.20;;;16.95;;
76202;SDS011;64985;46.364;17.008;2023-02-01T06:56:14;44.55;;;20.30;;
76202;SDS011;64985;46.364;17.008;2023-02-01T06:59:16;37.25;;;16.45;;
76202;SDS011;64985;46.364;17.008;2023-02-01T07:02:18;37.47;;;18.25;;
76202;SDS011;64985;46.364;17.008;2023-02-01T07:05:21;43.95;;;20.45;;
76202;SDS011;64985;46.364;17.008;2023-02-01T07:08:23;46.58;;;21.50;;
76202;SDS011;64985;46.364;17.008;2023-02-01T07:11:26;28.33;;;13.35;;
76202;SDS011;64985;46.364;17.008;2023-02-01T07:14:29;29.20;;;14.60;;
76202;SDS011;64985;46.364;17.008;2023-02-01T07:17:31;31.00;;;14.65;;
76202;SDS011;64985;46.364;17.008;2023-02-01T07:20:34;30.02;;;14.88;;
76202;SDS011;64985;46.364;17.008;2023-02-01T07:23:36;26.67;;;12.60;;
76202;SDS011;64985;46.364;17.008;2023-02-01T07:26:38;26.35;;;12.18;;
76202;SDS011;64985;46.364;17.008;2023-02-01T07:29:41;28.50;;;12.23;;
76202;SDS011;64985;46.364;17.008;2023-02-01T07:32:43;26.73;;;12.35;;
76202;SDS011;64985;46.364;17.008;2023-02-01T07:35:45;24.85;;;12.15;;
76202;SDS011;64985;46.364;17.008;2023-02-01T07:38:48;28.40;;;12.25;;
76202;SDS011;64985;46.364;17.008;2023-02-01T07:41:50;24.35;;;12.18;;
76202;SDS011;64985;46.364;17.008;2023-02-01T07:44:53;29.35;;;13.30;;
76202;SDS011;64985;46.364;17.008;2023-02-01T07:47:55;25.42;;;11.88;;
76202;SDS011;64985;46.364;17.008;2023-02-01T07:51:04;25.05;;;12.52;;
76202;SDS011;64985;46.364;17.008;2023-02-01T07:54:09;23.10;;;12.02;;
76202;SDS011;64985;46.364;17.008;2023-02-01T07:57:12;57.47;;;27.58;;
76202;SDS011;64985;46.364;17.008;2023-02-01T08:00:14;38.15;;;18.10;;
76202;SDS011;64985;46.364;17.008;2023-02-01T08:03:36;31.45;;;16.02;;
76202;SDS011;64985;46.364;17.008;2023-02-01T08:06:38;26.58;;;13.65;;
76202;SDS011;64985;46.364;17.008;2023-02-01T08:09:41;41.97;;;22.85;;
76202;SDS011;64985;46.364;17.008;2023-02-01T08:12:43;24.02;;;12.05;;
76202;SDS011;64985;46.364;17.008;2023-02-01T08:15:49;50.83;;;22.17;;
76202;SDS011;64985;46.364;17.008;2023-02-01T08:18:51;87.05;;;32.55;;
76202;SDS011;64985;46.364;17.008;2023-02-01T08:21:54;25.88;;;12.57;;
76202;SDS011;64985;46.364;17.008;2023-02-01T08:24:56;26.40;;;12.45;;
76202;SDS011;64985;46.364;17.008;2023-02-01T08:28:02;28.55;;;13.82;;
76202;SDS011;64985;46.364;17.008;2023-02-01T08:31:06;30.63;;;14.20;;
76202;SDS011;64985;46.364;17.008;2023-02-01T08:34:13;32.67;;;15.35;;
76202;SDS011;64985;46.364;17.008;2023-02-01T08:37:15;32.05;;;15.27;;
76202;SDS011;64985;46.364;17.008;2023-02-01T08:40:17;28.77;;;15.30;;
76202;SDS011;64985;46.364;17.008;2023-02-01T08:43:20;33.40;;;15.55;;
76202;SDS011;64985;46.364;17.008;2023-02-01T08:46:23;32.88;;;17.00;;
76202;SDS011;64985;46.364;17.008;2023-02-01T08:49:26;34.10;;;16.30;;
76202;SDS011;64985;46.364;17.008;2023-02-01T08:52:28;33.60;;;16.50;;
76202;SDS011;64985;46.364;17.008;2023-02-01T08:55:30;41.03;;;17.92;;
76202;SDS011;64985;46.364;17.008;2023-02-01T08:58:32;37.05;;;18.60;;
76202;SDS011;64985;46.364;17.008;2023-02-01T09:01:35;33.08;;;17.08;;
76202;SDS011;64985;46.364;17.008;2023-02-01T09:04:37;36.70;;;17.42;;
76202;SDS011;64985;46.364;17.008;2023-02-01T09:07:39;37.33;;;17.27;;
76202;SDS011;64985;46.364;17.008;2023-02-01T09:10:42;36.03;;;17.38;;
76202;SDS011;64985;46.364;17.008;2023-02-01T09:13:44;33.38;;;16.55;;
76202;SDS011;64985;46.364;17.008;2023-02-01T09:16:47;40.95;;;18.05;;
76202;SDS011;64985;46.364;17.008;2023-02-01T09:19:49;35.22;;;18.05;;
76202;SDS011;64985;46.364;17.008;2023-02-01T09:22:52;36.90;;;18.20;;
76202;SDS011;64985;46.364;17.008;2023-02-01T09:25:59;40.08;;;19.40;;
76202;SDS011;64985;46.364;17.008;2023-02-01T09:29:03;39.08;;;20.38;;
76202;SDS011;64985;46.364;17.008;2023-02-01T09:32:07;41.70;;;20.63;;
76202;SDS011;64985;46.364;17.008;2023-02-01T09:35:10;36.97;;;19.20;;
76202;SDS011;64985;46.364;17.008;2023-02-01T09:38:13;45.60;;;23.73;;
76202;SDS011;64985;46.364;17.008;2023-02-01T09:48:20;39.58;;;19.13;;
76202;SDS011;64985;46.364;17.008;2023-02-01T09:51:33;34.30;;;18.13;;
76202;SDS011;64985;46.364;17.008;2023-02-01T09:54:42;38.83;;;18.42;;
76202;SDS011;64985;46.364;17.008;2023-02-01T10:01:04;33.25;;;16.30;;
76202;SDS011;64985;46.364;17.008;2023-02-01T10:04:13;35.97;;;18.58;;
76202;SDS011;64985;46.364;17.008;2023-02-01T10:07:30;33.30;;;16.45;;
76202;SDS011;64985;46.364;17.008;2023-02-01T10:10:53;29.25;;;14.98;;
76202;SDS011;64985;46.364;17.008;2023-02-01T10:14:10;28.30;;;13.60;;
76202;SDS011;64985;46.364;17.008;2023-02-01T10:24:28;31.65;;;15.75;;
76202;SDS011;64985;46.364;17.008;2023-02-01T10:27:39;26.35;;;14.13;;
76202;SDS011;64985;46.364;17.008;2023-02-01T10:30:46;30.27;;;15.38;;
76202;SDS011;64985;46.364;17.008;2023-02-01T10:33:56;26.35;;;12.93;;
76202;SDS011;64985;46.364;17.008;2023-02-01T10:40:28;34.97;;;17.58;;
76202;SDS011;64985;46.364;17.008;2023-02-01T10:43:30;49.90;;;23.85;;
76202;SDS011;64985;46.364;17.008;2023-02-01T10:46:33;29.65;;;15.40;;
76202;SDS011;64985;46.364;17.008;2023-02-01T10:49:41;26.83;;;13.45;;
76202;SDS011;64985;46.364;17.008;2023-02-01T10:52:54;26.23;;;13.73;;
76202;SDS011;64985;46.364;17.008;2023-02-01T10:56:07;26.38;;;13.48;;
76202;SDS011;64985;46.364;17.008;2023-02-01T10:59:15;36.05;;;17.23;;
76202;SDS011;64985;46.364;17.008;2023-02-01T11:02:31;34.53;;;15.57;;
76202;SDS011;64985;46.364;17.008;2023-02-01T11:05:45;24.63;;;11.70;;
76202;SDS011;64985;46.364;17.008;2023-02-01T11:08:53;25.73;;;11.23;;
76202;SDS011;64985;46.364;17.008;2023-02-01T11:12:00;21.52;;;9.93;;
76202;SDS011;64985;46.364;17.008;2023-02-01T11:15:18;21.33;;;10.80;;
76202;SDS011;64985;46.364;17.008;2023-02-01T11:18:27;20.45;;;10.68;;
76202;SDS011;64985;46.364;17.008;2023-02-01T11:21:31;21.45;;;10.45;;
76202;SDS011;64985;46.364;17.008;2023-02-01T11:24:39;28.08;;;14.52;;
76202;SDS011;64985;46.364;17.008;2023-02-01T11:27:45;23.73;;;11.60;;
76202;SDS011;64985;46.364;17.008;2023-02-01T11:30:56;22.13;;;11.30;;
76202;SDS011;64985;46.364;17.008;2023-02-01T11:37:25;24.95;;;12.25;;
76202;SDS011;64985;46.364;17.008;2023-02-01T11:40:36;24.75;;;12.10;;
76202;SDS011;64985;46.364;17.008;2023-02-01T11:43:49;28.15;;;14.43;;
76202;SDS011;64985;46.364;17.008;2023-02-01T11:50:35;27.80;;;14.20;;
76202;SDS011;64985;46.364;17.008;2023-02-01T11:57:07;31.33;;;14.95;;
76202;SDS011;64985;46.364;17.008;2023-02-01T12:16:26;30.27;;;14.98;;
76202;SDS011;64985;46.364;17.008;2023-02-01T12:23:25;24.52;;;12.00;;
76202;SDS011;64985;46.364;17.008;2023-02-01T12:26:44;25.40;;;13.65;;
76202;SDS011;64985;46.364;17.008;2023-02-01T12:50:26;29.73;;;15.45;;
76202;SDS011;64985;46.364;17.008;2023-02-01T12:57:16;25.92;;;12.40;;
76202;SDS011;64985;46.364;17.008;2023-02-01T13:00:32;31.80;;;15.93;;
76202;SDS011;64985;46.364;17.008;2023-02-01T13:14:05;33.53;;;16.25;;
76202;SDS011;64985;46.364;17.008;2023-02-01T13:17:00;23.42;;;12.20;;
76202;SDS011;64985;46.364;17.008;2023-02-01T13:23:39;31.08;;;16.98;;
76202;SDS011;64985;46.364;17.008;2023-02-01T13:26:43;28.55;;;15.18;;
76202;SDS011;64985;46.364;17.008;2023-02-01T13:40:30;30.65;;;14.80;;
76202;SDS011;64985;46.364;17.008;2023-02-01T13:46:39;24.42;;;11.88;;
76202;SDS011;64985;46.364;17.008;2023-02-01T13:49:43;26.35;;;12.80;;
76202;SDS011;64985;46.364;17.008;2023-02-01T13:52:51;23.52;;;12.35;;
76202;SDS011;64985;46.364;17.008;2023-02-01T13:55:59;25.38;;;12.90;;
76202;SDS011;64985;46.364;17.008;2023-02-01T14:16:10;28.42;;;14.68;;
76202;SDS011;64985;46.364;17.008;2023-02-01T14:22:33;24.67;;;13.63;;
76202;SDS011;64985;46.364;17.008;2023-02-01T14:25:36;26.20;;;14.05;;
76202;SDS011;64985;46.364;17.008;2023-02-01T14:29:01;24.63;;;13.68;;
76202;SDS011;64985;46.364;17.008;2023-02-01T14:32:06;28.77;;;14.25;;
76202;SDS011;64985;46.364;17.008;2023-02-01T14:35:30;26.63;;;14.85;;
76202;SDS011;64985;46.364;17.008;2023-02-01T14:38:32;29.38;;;15.32;;
76202;SDS011;64985;46.364;17.008;2023-02-01T14:41:37;27.10;;;15.35;;
76202;SDS011;64985;46.364;17.008;2023-02-01T14:44:43;27.83;;;14.50;;
76202;SDS011;64985;46.364;17.008;2023-02-01T14:51:08;33.22;;;16.08;;
76202;SDS011;64985;46.364;17.008;2023-02-01T14:54:12;29.80;;;15.00;;
76202;SDS011;64985;46.364;17.008;2023-02-01T14:57:16;32.90;;;15.60;;
76202;SDS011;64985;46.364;17.008;2023-02-01T15:00:23;28.13;;;14.27;;
76202;SDS011;64985;46.364;17.008;2023-02-01T15:06:42;28.10;;;14.70;;
76202;SDS011;64985;46.364;17.008;2023-02-01T15:09:48;27.95;;;14.02;;
76202;SDS011;64985;46.364;17.008;2023-02-01T15:12:51;26.30;;;14.63;;
76202;SDS011;64985;46.364;17.008;2023-02-01T15:16:01;28.13;;;14.05;;
76202;SDS011;64985;46.364;17.008;2023-02-01T15:19:10;22.75;;;11.57;;
76202;SDS011;64985;46.364;17.008;2023-02-01T15:22:17;20.75;;;11.32;;
76202;SDS011;64985;46.364;17.008;2023-02-01T15:25:22;18.70;;;10.07;;
76202;SDS011;64985;46.364;17.008;2023-02-01T15:28:44;19.25;;;9.43;;
76202;SDS011;64985;46.364;17.008;2023-02-01T15:31:48;16.70;;;8.70;;
76202;SDS011;64985;46.364;17.008;2023-02-01T15:34:52;16.58;;;8.65;;
76202;SDS011;64985;46.364;17.008;2023-02-01T15:38:17;13.70;;;7.85;;
76202;SDS011;64985;46.364;17.008;2023-02-01T15:41:36;14.43;;;7.93;;
76202;SDS011;64985;46.364;17.008;2023-02-01T15:44:40;15.90;;;8.10;;
76202;SDS011;64985;46.364;17.008;2023-02-01T15:47:46;15.05;;;7.13;;
76202;SDS011;64985;46.364;17.008;2023-02-01T15:50:50;13.38;;;7.45;;
76202;SDS011;64985;46.364;17.008;2023-02-01T15:54:06;13.98;;;7.75;;
76202;SDS011;64985;46.364;17.008;2023-02-01T15:57:19;13.45;;;6.47;;
76202;SDS011;64985;46.364;17.008;2023-02-01T16:00:28;12.70;;;7.17;;
76202;SDS011;64985;46.364;17.008;2023-02-01T16:03:37;13.13;;;6.93;;
76202;SDS011;64985;46.364;17.008;2023-02-01T16:06:44;12.52;;;6.65;;
76202;SDS011;64985;46.364;17.008;2023-02-01T16:09:53;14.13;;;6.00;;
76202;SDS011;64985;46.364;17.008;2023-02-01T16:12:57;15.43;;;8.20;;
76202;SDS011;64985;46.364;17.008;2023-02-01T16:16:02;12.80;;;6.55;;
76202;SDS011;64985;46.364;17.008;2023-02-01T16:19:09;13.35;;;6.97;;
76202;SDS011;64985;46.364;17.008;2023-02-01T16:22:11;12.68;;;6.88;;
76202;SDS011;64985;46.364;17.008;2023-02-01T16:25:14;12.20;;;6.32;;
76202;SDS011;64985;46.364;17.008;2023-02-01T16:28:16;10.45;;;6.00;;
76202;SDS011;64985;46.364;17.008;2023-02-01T16:31:18;11.32;;;5.55;;
76202;SDS011;64985;46.364;17.008;2023-02-01T16:34:26;12.40;;;5.57;;
76202;SDS011;64985;46.364;17.008;2023-02-01T16:37:29;9.95;;;5.40;;
76202;SDS011;64985;46.364;17.008;2023-02-01T16:40:34;11.80;;;5.65;;
76202;SDS011;64985;46.364;17.008;2023-02-01T16:43:37;10.80;;;5.47;;
76202;SDS011;64985;46.364;17.008;2023-02-01T16:46:40;10.93;;;5.80;;
76202;SDS011;64985;46.364;17.008;2023-02-01T16:49:46;10.82;;;5.70;;
76202;SDS011;64985;46.364;17.008;2023-02-01T16:52:48;10.73;;;5.80;;
76202;SDS011;64985;46.364;17.008;2023-02-01T16:55:51;9.73;;;5.38;;
76202;SDS011;64985;46.364;17.008;2023-02-01T16:58:54;10.25;;;5.40;;
76202;SDS011;64985;46.364;17.008;2023-02-01T17:01:57;13.48;;;6.03;;
76202;SDS011;64985;46.364;17.008;2023-02-01T17:05:00;10.10;;;5.22;;
76202;SDS011;64985;46.364;17.008;2023-02-01T17:08:04;8.55;;;5.05;;
76202;SDS011;64985;46.364;17.008;2023-02-01T17:11:09;13.65;;;6.93;;
76202;SDS011;64985;46.364;17.008;2023-02-01T17:14:17;11.57;;;5.97;;
76202;SDS011;64985;46.364;17.008;2023-02-01T17:17:22;11.07;;;5.82;;
76202;SDS011;64985;46.364;17.008;2023-02-01T17:20:40;11.65;;;6.60;;
76202;SDS011;64985;46.364;17.008;2023-02-01T17:23:45;11.55;;;6.05;;
76202;SDS011;64985;46.364;17.008;2023-02-01T17:26:48;11.50;;;5.82;;
76202;SDS011;64985;46.364;17.008;2023-02-01T17:29:52;12.35;;;5.82;;
76202;SDS011;64985;46.364;17.008;2023-02-01T17:32:58;10.10;;;5.30;;
76202;SDS011;64985;46.364;17.008;2023-02-01T17:36:08;13.02;;;7.05;;
76202;SDS011;64985;46.364;17.008;2023-02-01T17:39:18;11.38;;;6.20;;
76202;SDS011;64985;46.364;17.008;2023-02-01T17:42:40;13.18;;;6.57;;
76202;SDS011;64985;46.364;17.008;2023-02-01T17:45:47;13.85;;;6.53;;
76202;SDS011;64985;46.364;17.008;2023-02-01T17:49:00;12.10;;;6.13;;
76202;SDS011;64985;46.364;17.008;2023-02-01T17:52:05;11.18;;;6.28;;
76202;SDS011;64985;46.364;17.008;2023-02-01T17:55:15;9.82;;;5.65;;
76202;SDS011;64985;46.364;17.008;2023-02-01T17:58:24;10.00;;;5.75;;
76202;SDS011;64985;46.364;17.008;2023-02-01T18:01:27;12.25;;;6.20;;
76202;SDS011;64985;46.364;17.008;2023-02-01T18:04:30;12.75;;;6.28;;
76202;SDS011;64985;46.364;17.008;2023-02-01T18:07:33;10.02;;;5.40;;
76202;SDS011;64985;46.364;17.008;2023-02-01T18:10:36;9.85;;;5.28;;
76202;SDS011;64985;46.364;17.008;2023-02-01T18:13:38;10.55;;;5.28;;
76202;SDS011;64985;46.364;17.008;2023-02-01T18:16:42;12.23;;;6.43;;
76202;SDS011;64985;46.364;17.008;2023-02-01T18:19:45;12.85;;;7.25;;
76202;SDS011;64985;46.364;17.008;2023-02-01T18:22:48;12.27;;;5.90;;
76202;SDS011;64985;46.364;17.008;2023-02-01T18:25:53;10.32;;;5.70;;
76202;SDS011;64985;46.364;17.008;2023-02-01T18:28:57;12.32;;;6.65;;
76202;SDS011;64985;46.364;17.008;2023-02-01T18:32:01;10.60;;;6.20;;
76202;SDS011;64985;46.364;17.008;2023-02-01T18:35:13;9.15;;;5.63;;
76202;SDS011;64985;46.364;17.008;2023-02-01T18:38:20;12.40;;;7.32;;
76202;SDS011;64985;46.364;17.008;2023-02-01T18:41:23;14.38;;;6.47;;
76202;SDS011;64985;46.364;17.008;2023-02-01T18:44:27;12.48;;;6.70;;
76202;SDS011;64985;46.364;17.008;2023-02-01T18:47:31;10.25;;;6.00;;
76202;SDS011;64985;46.364;17.008;2023-02-01T18:50:36;11.90;;;6.13;;
76202;SDS011;64985;46.364;17.008;2023-02-01T18:53:41;13.10;;;5.90;;
76202;SDS011;64985;46.364;17.008;2023-02-01T18:56:46;16.45;;;7.10;;
76202;SDS011;64985;46.364;17.008;2023-02-01T18:59:49;14.15;;;6.63;;
76202;SDS011;64985;46.364;17.008;2023-02-01T19:02:58;12.55;;;6.60;;
76202;SDS011;64985;46.364;17.008;2023-02-01T19:06:06;13.98;;;7.63;;
76202;SDS011;64985;46.364;17.008;2023-02-01T19:09:10;16.00;;;7.82;;
76202;SDS011;64985;46.364;17.008;2023-02-01T19:12:13;16.58;;;9.45;;
76202;SDS011;64985;46.364;17.008;2023-02-01T19:15:20;16.85;;;9.20;;
76202;SDS011;64985;46.364;17.008;2023-02-01T19:18:24;11.85;;;6.20;;
76202;SDS011;64985;46.364;17.008;2023-02-01T19:21:27;16.35;;;7.80;;
76202;SDS011;64985;46.364;17.008;2023-02-01T19:24:31;18.30;;;10.52;;
76202;SDS011;64985;46.364;17.008;2023-02-01T19:27:35;15.35;;;8.15;;
76202;SDS011;64985;46.364;17.008;2023-02-01T19:30:38;14.40;;;7.75;;
76202;SDS011;64985;46.364;17.008;2023-02-01T19:33:43;14.90;;;7.40;;
76202;SDS011;64985;46.364;17.008;2023-02-01T19:36:47;16.33;;;7.72;;
76202;SDS011;64985;46.364;17.008;2023-02-01T19:39:52;17.77;;;8.85;;
76202;SDS011;64985;46.364;17.008;2023-02-01T19:43:00;13.63;;;7.10;;
76202;SDS011;64985;46.364;17.008;2023-02-01T19:46:04;16.58;;;8.18;;
76202;SDS011;64985;46.364;17.008;2023-02-01T19:49:08;14.20;;;7.72;;
76202;SDS011;64985;46.364;17.008;2023-02-01T19:52:14;13.02;;;6.45;;
76202;SDS011;64985;46.364;17.008;2023-02-01T19:55:19;37.30;;;19.38;;
76202;SDS011;64985;46.364;17.008;2023-02-01T19:58:23;20.77;;;10.27;;
76202;SDS011;64985;46.364;17.008;2023-02-01T20:01:27;19.73;;;10.60;;
76202;SDS011;64985;46.364;17.008;2023-02-01T20:04:30;22.58;;;10.40;;
76202;SDS011;64985;46.364;17.008;2023-02-01T20:07:34;20.35;;;10.65;;
76202;SDS011;64985;46.364;17.008;2023-02-01T20:10:41;13.18;;;7.10;;
76202;SDS011;64985;46.364;17.008;2023-02-01T20:13:47;13.43;;;6.82;;
76202;SDS011;64985;46.364;17.008;2023-02-01T20:16:51;20.30;;;11.05;;
76202;SDS011;64985;46.364;17.008;2023-02-01T20:19:54;20.80;;;10.73;;
76202;SDS011;64985;46.364;17.008;2023-02-01T20:22:57;25.60;;;12.10;;